Terminal Aerodrome Forecast
Issued by NWS

Home | Current Version | Previous Version | Graphics & Text | Print | Product List | Glossary On
Versions: 1 2 3 4 5 6 7 8 9 10 11 12 13 14 15 16 17 18 19 20 21 22 23 24 25
000
FTUS43 KLOT 241100
TAFMDW
TAF
KMDW 241128Z 2412/2512 02006KT 6SM -SHRA BR SCT025 OVC045
     FM241300 36010KT 4SM -RA BR SCT008 OVC015
     FM241700 31012G21KT 3SM -RASN BR OVC006
      TEMPO 2417/2421 1SM -SN BR
     FM250100 28014KT 3SM -SN BR OVC007
     FM250500 26012KT P6SM OVC015=

USA.gov is the U.S. government's official web portal to all federal, state and local government web resources and services.